Time;durP1;ratioP1;P1;durP2;ratioP2;P2;SDS_P1;SDS_P2;PMS_P1;PMS_P2;Temp;Humidity;BMP_temperature;BMP_pressure;BME280_temperature;BME280_humidity;BME280_pressure;Samples;Min_cycle;Max_cycle;Signal;HPM_P1;HPM_P2
2023/12/04 00:00:38;;;;;;;16.17;9.50;;;3.20;87.50;;;;;;5036396;28;20477;-72
2023/12/04 00:03:03;;;;;;;14.87;8.30;;;3.20;87.40;;;;;;5035938;28;20033;-72
2023/12/04 00:05:29;;;;;;;14.10;8.83;;;3.10;87.50;;;;;;5051044;28;20111;-73
2023/12/04 00:07:55;;;;;;;13.03;7.97;;;3.10;88.30;;;;;;5055888;28;20041;-72
2023/12/04 00:10:21;;;;;;;15.10;7.60;;;3.20;89.00;;;;;;5055663;28;20064;-72
2023/12/04 00:12:47;;;;;;;12.30;8.10;;;3.10;89.30;;;;;;5055874;28;20040;-72
2023/12/04 00:15:12;;;;;;;12.93;7.77;;;3.10;88.90;;;;;;5064261;28;20535;-72
2023/12/04 00:17:39;;;;;;;11.27;7.97;;;3.10;89.50;;;;;;5075901;28;20110;-73
2023/12/04 00:20:09;;;;;;;11.50;7.50;;;3.10;90.00;;;;;;5074571;28;20036;-72
2023/12/04 00:22:36;;;;;;;12.70;8.27;;;3.10;90.20;;;;;;5075451;28;20032;-72
2023/12/04 00:25:03;;;;;;;13.67;8.50;;;3.00;89.30;;;;;;5074985;28;20056;-73
2023/12/04 00:27:29;;;;;;;13.73;7.80;;;3.00;89.20;;;;;;5074963;28;20136;-72
2023/12/04 00:29:55;;;;;;;11.87;8.03;;;3.00;90.00;;;;;;5075266;28;20488;-72
2023/12/04 00:32:21;;;;;;;12.73;8.07;;;3.00;90.30;;;;;;5075490;28;20059;-73
2023/12/04 00:34:46;;;;;;;15.80;8.03;;;3.00;90.60;;;;;;5057653;28;20036;-73
2023/12/04 00:37:12;;;;;;;13.17;8.10;;;3.00;90.50;;;;;;5075334;28;20060;-72
2023/12/04 00:39:38;;;;;;;14.83;8.03;;;2.90;90.60;;;;;;5075294;28;20024;-72
2023/12/04 00:42:04;;;;;;;12.50;7.97;;;2.90;90.70;;;;;;5075002;28;20044;-72
2023/12/04 00:44:29;;;;;;;12.77;8.23;;;2.90;90.60;;;;;;5075161;28;20107;-73
2023/12/04 00:46:55;;;;;;;13.83;8.20;;;2.90;90.80;;;;;;5075468;28;20064;-72
2023/12/04 00:49:21;;;;;;;11.57;7.90;;;2.80;91.10;;;;;;5074865;28;20052;-72
2023/12/04 00:51:47;;;;;;;16.67;8.60;;;2.80;90.80;;;;;;5074939;28;20040;-72
2023/12/04 00:54:13;;;;;;;15.17;8.13;;;2.70;90.90;;;;;;5074386;28;20058;-73
2023/12/04 00:56:42;;;;;;;12.57;7.27;;;2.70;90.80;;;;;;5075130;28;20037;-72
2023/12/04 00:59:09;;;;;;;13.10;7.23;;;2.60;90.70;;;;;;5065732;28;20068;-73
2023/12/04 01:01:36;;;;;;;9.70;6.63;;;2.70;90.70;;;;;;5055974;28;20029;-73
2023/12/04 01:04:02;;;;;;;9.90;6.47;;;2.60;90.60;;;;;;5056331;28;20040;-72
2023/12/04 01:06:29;;;;;;;8.97;5.87;;;2.60;90.50;;;;;;5073443;28;20433;-72
2023/12/04 01:08:55;;;;;;;10.20;6.00;;;2.60;90.40;;;;;;5074874;28;20576;-72
2023/12/04 01:11:21;;;;;;;9.00;5.33;;;2.60;90.60;;;;;;5074476;28;20404;-72
2023/12/04 01:13:47;;;;;;;11.20;6.07;;;2.60;90.70;;;;;;5074741;28;20032;-73
2023/12/04 01:16:13;;;;;;;8.97;5.80;;;2.60;90.70;;;;;;5074080;28;20563;-72
2023/12/04 01:18:38;;;;;;;11.07;6.60;;;2.60;91.00;;;;;;5074397;28;20112;-72
2023/12/04 01:21:04;;;;;;;8.47;5.57;;;2.50;90.60;;;;;;5056471;28;20067;-73
2023/12/04 01:23:30;;;;;;;11.00;5.90;;;2.60;90.90;;;;;;5074764;28;20064;-72
2023/12/04 01:25:56;;;;;;;10.10;6.00;;;2.50;90.90;;;;;;5056430;28;20036;-72
2023/12/04 01:28:22;;;;;;;8.87;5.40;;;2.60;91.10;;;;;;5074233;28;20045;-72
2023/12/04 01:30:47;;;;;;;11.80;5.60;;;2.60;91.00;;;;;;5074204;28;20033;-72
2023/12/04 01:33:13;;;;;;;10.93;5.33;;;2.60;91.00;;;;;;5073915;28;20094;-74
2023/12/04 01:35:39;;;;;;;8.50;5.30;;;2.50;90.80;;;;;;5074322;28;20063;-72
2023/12/04 01:38:05;;;;;;;9.00;5.67;;;2.50;91.00;;;;;;5074428;28;20056;-73
2023/12/04 01:40:30;;;;;;;8.37;5.40;;;2.60;91.30;;;;;;5074332;28;20109;-73
2023/12/04 01:42:56;;;;;;;8.07;5.27;;;2.50;91.40;;;;;;5074104;28;20102;-72
2023/12/04 01:45:22;;;;;;;10.27;5.40;;;2.50;91.40;;;;;;5074284;28;20060;-72
2023/12/04 01:47:48;;;;;;;7.80;5.33;;;2.50;91.30;;;;;;5073891;28;20044;-72
2023/12/04 01:50:14;;;;;;;8.67;5.50;;;2.50;91.20;;;;;;5074118;28;20033;-72
2023/12/04 01:52:40;;;;;;;8.30;5.23;;;2.40;91.20;;;;;;5074225;28;20477;-73
2023/12/04 01:55:08;;;;;;;8.70;5.90;;;2.40;91.40;;;;;;5073975;28;20130;-74
2023/12/04 01:57:35;;;;;;;8.67;6.00;;;2.40;91.20;;;;;;5073081;28;20044;-73
2023/12/04 02:00:01;;;;;;;9.50;6.07;;;2.40;91.40;;;;;;5071176;28;20066;-73
2023/12/04 02:02:30;;;;;;;9.93;6.67;;;2.40;91.30;;;;;;5071391;28;20075;-73
2023/12/04 02:04:57;;;;;;;13.73;6.77;;;2.30;91.60;;;;;;5072325;28;20044;-74
2023/12/04 02:07:23;;;;;;;9.33;5.90;;;2.40;91.90;;;;;;5072745;28;20108;-72
2023/12/04 02:09:50;;;;;;;8.30;5.43;;;2.30;92.00;;;;;;5073269;28;20068;-72
2023/12/04 02:12:16;;;;;;;9.23;6.00;;;2.30;91.70;;;;;;5073225;28;20032;-73
2023/12/04 02:14:43;;;;;;;8.40;5.40;;;2.20;91.60;;;;;;5072258;28;20067;-75
2023/12/04 02:17:10;;;;;;;8.53;5.70;;;2.20;92.10;;;;;;5073149;28;20377;-73
2023/12/04 02:19:37;;;;;;;8.73;6.20;;;2.20;91.80;;;;;;5073461;28;20390;-74
2023/12/04 02:22:03;;;;;;;11.67;6.10;;;2.10;92.10;;;;;;5073083;28;20040;-75
2023/12/04 02:24:31;;;;;;;11.27;5.70;;;2.10;92.30;;;;;;5073084;28;20032;-75
2023/12/04 02:27:04;;;;;;;8.57;5.30;;;2.10;92.50;;;;;;5073260;28;20362;-72
2023/12/04 02:29:32;;;;;;;8.60;5.30;;;2.10;92.80;;;;;;5072470;28;20037;-72
2023/12/04 02:32:02;;;;;;;9.77;5.40;;;2.10;92.80;;;;;;5040335;28;20079;-72
2023/12/04 02:34:29;;;;;;;10.00;6.27;;;2.10;92.70;;;;;;5032713;28;20056;-72
2023/12/04 02:36:56;;;;;;;9.17;5.47;;;2.10;92.50;;;;;;5032855;28;20030;-72
2023/12/04 02:39:22;;;;;;;8.40;5.13;;;2.10;92.60;;;;;;5033088;28;20025;-72
2023/12/04 02:41:48;;;;;;;8.50;5.70;;;2.00;92.70;;;;;;5015269;28;20079;-72
2023/12/04 02:44:14;;;;;;;7.90;4.83;;;2.00;92.80;;;;;;5032746;28;20026;-73
2023/12/04 02:46:40;;;;;;;7.07;4.53;;;2.00;93.00;;;;;;5031748;28;20056;-73
2023/12/04 02:49:06;;;;;;;7.30;4.70;;;2.00;92.90;;;;;;5048316;28;20053;-73
2023/12/04 02:51:31;;;;;;;8.23;4.97;;;2.00;92.80;;;;;;5052754;28;20473;-72
2023/12/04 02:53:57;;;;;;;7.80;4.73;;;2.00;92.80;;;;;;5052635;28;20030;-73
2023/12/04 02:56:23;;;;;;;8.97;5.00;;;1.90;92.80;;;;;;5052452;28;20108;-72
2023/12/04 02:58:49;;;;;;;7.50;4.50;;;1.90;92.80;;;;;;5052509;28;20052;-72
2023/12/04 03:01:14;;;;;;;6.93;4.27;;;1.90;92.80;;;;;;5052216;28;20028;-72
2023/12/04 03:03:40;;;;;;;7.17;4.60;;;1.90;92.60;;;;;;5052683;28;20073;-72
2023/12/04 03:06:06;;;;;;;6.40;4.53;;;1.90;92.50;;;;;;5052238;28;20040;-72
2023/12/04 03:08:32;;;;;;;9.63;4.47;;;1.90;92.50;;;;;;5052259;28;20492;-73
2023/12/04 03:10:58;;;;;;;7.53;4.70;;;1.90;92.50;;;;;;5052872;28;20033;-73
2023/12/04 03:13:23;;;;;;;7.73;4.83;;;1.90;92.50;;;;;;5052571;28;20032;-72
2023/12/04 03:15:49;;;;;;;6.67;4.27;;;1.90;92.30;;;;;;5052304;28;20048;-72
2023/12/04 03:18:15;;;;;;;6.83;4.53;;;1.90;92.30;;;;;;5052771;28;20037;-76
2023/12/04 03:20:41;;;;;;;7.13;4.57;;;1.90;92.20;;;;;;5052489;28;20032;-75
2023/12/04 03:23:06;;;;;;;6.53;4.17;;;1.90;92.10;;;;;;5052709;28;20033;-75
2023/12/04 03:25:32;;;;;;;5.63;3.80;;;1.90;92.00;;;;;;5052456;28;20103;-72
2023/12/04 03:27:58;;;;;;;7.27;4.23;;;1.80;91.90;;;;;;5052081;28;20291;-73
2023/12/04 03:30:24;;;;;;;9.13;4.73;;;1.70;92.00;;;;;;5034742;28;20037;-73
2023/12/04 03:32:49;;;;;;;7.73;4.20;;;1.70;91.90;;;;;;5052400;28;20104;-72
2023/12/04 03:35:15;;;;;;;7.23;4.43;;;1.70;91.90;;;;;;5052139;28;20025;-74
2023/12/04 03:37:41;;;;;;;8.70;4.27;;;1.70;91.90;;;;;;5052173;28;20032;-72
2023/12/04 03:40:07;;;;;;;8.10;4.70;;;1.70;91.90;;;;;;5052283;28;20036;-72
2023/12/04 03:42:33;;;;;;;8.60;4.90;;;1.70;91.90;;;;;;5052183;28;20485;-72
2023/12/04 03:44:59;;;;;;;8.40;5.07;;;1.60;91.80;;;;;;5052282;28;20090;-72
2023/12/04 03:47:25;;;;;;;8.23;4.80;;;1.60;91.90;;;;;;5051984;28;20362;-72
2023/12/04 03:49:51;;;;;;;10.43;5.20;;;1.60;92.40;;;;;;5052053;28;20041;-73
2023/12/04 03:52:16;;;;;;;7.40;4.77;;;1.50;92.40;;;;;;5050994;28;20080;-72
2023/12/04 03:54:42;;;;;;;8.43;5.17;;;1.50;92.50;;;;;;5052171;28;20074;-72
2023/12/04 03:57:08;;;;;;;9.37;5.20;;;1.50;92.30;;;;;;5051846;28;20029;-72
2023/12/04 03:59:34;;;;;;;9.17;4.67;;;1.50;92.00;;;;;;5051808;28;20044;-73
2023/12/04 04:02:00;;;;;;;8.13;4.83;;;1.40;92.00;;;;;;5052310;28;20040;-72
2023/12/04 04:04:26;;;;;;;8.07;4.60;;;1.40;92.10;;;;;;5051918;28;20037;-73
2023/12/04 04:06:51;;;;;;;7.50;3.90;;;1.40;92.10;;;;;;5052034;28;20033;-72
2023/12/04 04:09:19;;;;;;;6.70;4.03;;;1.40;92.10;;;;;;5051805;28;20049;-72
2023/12/04 04:11:45;;;;;;;7.43;4.30;;;1.40;92.10;;;;;;5051975;28;20415;-72
2023/12/04 04:14:11;;;;;;;7.97;4.20;;;1.40;91.90;;;;;;5051848;28;20079;-72
2023/12/04 04:16:37;;;;;;;6.57;4.00;;;1.40;91.70;;;;;;5051522;28;20048;-72
2023/12/04 04:19:02;;;;;;;8.57;4.03;;;1.40;91.80;;;;;;5051500;28;20033;-72
2023/12/04 04:21:28;;;;;;;5.93;3.90;;;1.40;91.90;;;;;;5051285;28;20124;-73
2023/12/04 04:23:54;;;;;;;5.57;3.47;;;1.50;91.90;;;;;;5051695;28;20060;-75
2023/12/04 04:26:20;;;;;;;6.87;3.90;;;1.50;91.80;;;;;;5051464;28;20061;-75
2023/12/04 04:28:45;;;;;;;6.20;4.17;;;1.50;91.40;;;;;;5051584;28;20591;-71
2023/12/04 04:31:11;;;;;;;7.30;3.87;;;1.50;91.30;;;;;;5051507;28;20052;-72
2023/12/04 04:33:37;;;;;;;4.80;3.23;;;1.50;91.30;;;;;;5051622;28;20041;-72
2023/12/04 04:36:03;;;;;;;8.10;3.07;;;1.50;91.20;;;;;;5051528;28;20080;-72
2023/12/04 04:38:29;;;;;;;4.40;2.80;;;1.50;91.10;;;;;;5052873;28;20397;-72
2023/12/04 04:40:55;;;;;;;3.50;2.63;;;1.50;90.90;;;;;;5055670;28;20040;-73
2023/12/04 04:43:20;;;;;;;6.73;4.17;;;1.60;90.90;;;;;;5037522;28;20349;-72
2023/12/04 04:45:46;;;;;;;5.13;4.30;;;1.50;90.90;;;;;;5055059;28;20029;-72
2023/12/04 04:48:12;;;;;;;10.07;7.37;;;1.50;90.80;;;;;;5055082;28;20052;-72
2023/12/04 04:50:38;;;;;;;4.93;3.50;;;1.60;91.00;;;;;;5054841;28;20515;-72
2023/12/04 04:53:04;;;;;;;6.30;3.43;;;1.60;90.80;;;;;;5054958;28;20082;-72
2023/12/04 04:55:31;;;;;;;4.30;3.03;;;1.60;91.10;;;;;;5054777;28;20037;-72
2023/12/04 04:57:57;;;;;;;4.83;3.20;;;1.60;91.00;;;;;;5054854;28;20031;-72
2023/12/04 05:00:23;;;;;;;4.67;3.37;;;1.50;91.10;;;;;;5054913;28;20455;-72
2023/12/04 05:02:49;;;;;;;4.50;3.20;;;1.50;91.20;;;;;;5054741;28;20492;-73
2023/12/04 05:05:14;;;;;;;5.90;2.70;;;1.60;91.30;;;;;;5054598;28;20037;-72
2023/12/04 05:07:40;;;;;;;3.80;2.50;;;1.60;91.20;;;;;;5054626;28;20124;-72
2023/12/04 05:10:06;;;;;;;5.53;3.30;;;1.60;91.00;;;;;;5054698;28;20068;-75
2023/12/04 05:12:32;;;;;;;5.17;2.73;;;1.60;90.90;;;;;;5054552;28;20037;-74
2023/12/04 05:14:57;;;;;;;4.60;3.00;;;1.60;90.80;;;;;;5054626;28;20045;-72
2023/12/04 05:17:23;;;;;;;4.30;2.73;;;1.60;90.70;;;;;;5054564;28;20033;-72
2023/12/04 05:19:49;;;;;;;4.87;2.90;;;1.60;90.60;;;;;;5054243;28;20039;-73
2023/12/04 05:22:15;;;;;;;6.13;2.83;;;1.50;90.80;;;;;;5054310;28;20091;-73
2023/12/04 05:24:40;;;;;;;4.10;2.60;;;1.50;90.40;;;;;;5054080;28;20053;-72
2023/12/04 05:27:06;;;;;;;4.17;2.50;;;1.50;90.40;;;;;;5054651;28;20047;-72
2023/12/04 05:29:32;;;;;;;3.87;2.70;;;1.50;90.20;;;;;;5054101;28;20049;-72
2023/12/04 05:31:58;;;;;;;3.53;2.30;;;1.50;89.80;;;;;;5058381;28;20033;-75
2023/12/04 05:34:24;;;;;;;6.00;2.93;;;1.50;89.90;;;;;;5065181;28;20039;-73
2023/12/04 05:36:49;;;;;;;4.60;2.60;;;1.50;89.60;;;;;;5073885;28;20055;-73
2023/12/04 05:39:15;;;;;;;4.70;3.10;;;1.50;89.30;;;;;;5074060;28;20032;-72
2023/12/04 05:41:41;;;;;;;4.93;2.80;;;1.60;88.70;;;;;;5073953;28;20111;-72
2023/12/04 05:44:07;;;;;;;6.50;2.90;;;1.60;88.40;;;;;;5073967;28;20116;-72
2023/12/04 05:46:32;;;;;;;4.80;3.03;;;1.60;88.20;;;;;;5073996;28;20139;-74
2023/12/04 05:48:58;;;;;;;5.00;2.80;;;1.70;87.60;;;;;;5073961;28;20075;-73
2023/12/04 05:51:24;;;;;;;4.47;2.93;;;1.60;86.60;;;;;;5072989;28;20028;-73
2023/12/04 05:53:50;;;;;;;7.47;3.37;;;1.60;87.20;;;;;;5073818;28;20032;-72
2023/12/04 05:56:15;;;;;;;10.83;3.77;;;1.50;87.80;;;;;;5073926;28;20123;-73
2023/12/04 05:58:41;;;;;;;10.67;4.30;;;1.50;88.50;;;;;;5073880;28;20047;-73
2023/12/04 06:01:07;;;;;;;7.60;4.30;;;1.40;89.00;;;;;;5073481;28;20051;-73
2023/12/04 06:03:33;;;;;;;8.40;4.47;;;1.40;89.60;;;;;;5073769;28;20111;-73
2023/12/04 06:05:59;;;;;;;12.17;5.00;;;1.40;89.80;;;;;;5073433;28;20116;-73
2023/12/04 06:08:25;;;;;;;8.93;4.97;;;1.30;90.20;;;;;;5073526;28;20181;-73
2023/12/04 06:10:51;;;;;;;7.57;4.60;;;1.30;90.30;;;;;;5073207;28;20032;-73
2023/12/04 06:13:16;;;;;;;7.63;4.53;;;1.30;90.60;;;;;;5073397;28;20040;-73
2023/12/04 06:15:42;;;;;;;10.33;5.30;;;1.20;90.70;;;;;;5061704;28;20406;-75
2023/12/04 06:18:08;;;;;;;7.97;4.10;;;1.30;90.70;;;;;;5053720;28;20029;-73
2023/12/04 06:20:34;;;;;;;9.03;4.30;;;1.30;90.60;;;;;;5035599;28;20035;-73
2023/12/04 06:23:00;;;;;;;5.10;3.47;;;1.20;90.60;;;;;;5053431;28;20025;-73
2023/12/04 06:25:26;;;;;;;5.97;3.30;;;1.20;90.50;;;;;;5053570;28;20040;-73
2023/12/04 06:27:52;;;;;;;6.17;3.20;;;1.20;90.40;;;;;;5035374;28;20041;-73
2023/12/04 06:30:18;;;;;;;7.27;3.60;;;1.20;90.50;;;;;;5053119;28;20045;-73
2023/12/04 06:32:44;;;;;;;3.53;2.17;;;1.20;90.40;;;;;;5053495;28;20354;-73
2023/12/04 06:35:11;;;;;;;4.63;2.40;;;1.20;90.10;;;;;;5052122;28;20693;-72
2023/12/04 06:37:39;;;;;;;3.73;2.40;;;1.20;90.10;;;;;;5051342;28;20505;-73
2023/12/04 06:40:08;;;;;;;5.80;2.57;;;1.30;89.80;;;;;;5051686;28;20496;-73
2023/12/04 06:42:35;;;;;;;4.30;2.60;;;1.30;89.40;;;;;;5051794;28;20147;-73
2023/12/04 06:45:01;;;;;;;4.27;2.67;;;1.30;88.80;;;;;;5051784;28;20604;-73
2023/12/04 06:47:30;;;;;;;5.40;2.90;;;1.30;88.20;;;;;;5052015;28;20036;-73
2023/12/04 06:49:55;;;;;;;4.07;2.43;;;1.30;87.60;;;;;;5052017;28;20488;-73
2023/12/04 06:52:21;;;;;;;3.93;2.73;;;1.40;87.30;;;;;;5052445;28;20086;-73
2023/12/04 06:54:47;;;;;;;5.27;2.73;;;1.40;86.90;;;;;;5052498;28;20041;-73
2023/12/04 06:57:14;;;;;;;4.47;2.77;;;1.40;86.70;;;;;;5052462;28;20051;-73
2023/12/04 06:59:41;;;;;;;5.23;2.63;;;1.40;86.60;;;;;;5052625;28;20031;-73
2023/12/04 07:02:07;;;;;;;4.97;3.30;;;1.40;86.70;;;;;;5034143;28;20446;-74
2023/12/04 07:04:33;;;;;;;5.57;3.20;;;1.50;86.80;;;;;;5034696;28;20112;-73
2023/12/04 07:07:04;;;;;;;5.03;3.37;;;1.50;86.80;;;;;;5033785;28;20033;-73
2023/12/04 07:09:31;;;;;;;6.57;3.30;;;1.60;86.70;;;;;;5044212;28;20040;-73
2023/12/04 07:11:57;;;;;;;7.23;3.80;;;1.60;87.00;;;;;;5036683;28;20422;-73
2023/12/04 07:14:23;;;;;;;6.10;3.90;;;1.60;86.90;;;;;;5045326;28;20044;-73
2023/12/04 07:16:49;;;;;;;6.23;3.67;;;1.70;86.20;;;;;;5029798;28;20056;-73
2023/12/04 07:19:16;;;;;;;7.60;3.73;;;1.70;85.60;;;;;;5032957;28;20095;-73
2023/12/04 07:21:42;;;;;;;8.40;4.43;;;1.70;85.00;;;;;;5041509;28;20531;-73
2023/12/04 07:24:08;;;;;;;9.27;4.30;;;1.80;84.90;;;;;;5052389;28;20033;-73
2023/12/04 07:26:35;;;;;;;7.27;4.47;;;1.80;84.60;;;;;;5052472;28;20037;-73
2023/12/04 07:29:01;;;;;;;7.50;4.40;;;1.80;85.00;;;;;;5052722;28;20041;-72
2023/12/04 07:31:27;;;;;;;7.17;4.57;;;1.90;85.20;;;;;;5052460;28;20036;-73
2023/12/04 07:33:54;;;;;;;6.93;4.20;;;1.90;85.40;;;;;;5052655;28;20113;-72
2023/12/04 07:36:20;;;;;;;6.83;4.17;;;2.00;85.70;;;;;;5052243;28;20029;-72
2023/12/04 07:38:45;;;;;;;5.50;4.00;;;2.00;85.70;;;;;;5034124;28;20086;-73
2023/12/04 07:41:11;;;;;;;7.43;4.30;;;2.00;85.70;;;;;;5052181;28;20108;-72
2023/12/04 07:43:37;;;;;;;8.20;4.43;;;2.10;85.50;;;;;;5034596;28;20025;-72
2023/12/04 07:46:03;;;;;;;6.20;3.80;;;2.20;85.70;;;;;;5052358;28;20108;-74
2023/12/04 07:48:32;;;;;;;8.10;4.07;;;2.20;85.60;;;;;;5052141;28;20052;-73
2023/12/04 07:50:57;;;;;;;6.40;4.00;;;2.30;85.30;;;;;;5046480;28;20119;-71
2023/12/04 07:53:23;;;;;;;12.63;4.23;;;2.40;85.30;;;;;;5027115;28;20036;-72
2023/12/04 07:55:51;;;;;;;7.97;3.93;;;2.50;85.60;;;;;;5048668;28;20045;-71
2023/12/04 07:58:17;;;;;;;7.50;4.53;;;2.50;84.40;;;;;;5049076;28;20436;-72
2023/12/04 08:00:44;;;;;;;7.43;3.90;;;2.60;83.80;;;;;;5051853;28;20036;-72
2023/12/04 08:03:10;;;;;;;6.97;3.87;;;2.70;82.60;;;;;;5052190;28;20033;-72
2023/12/04 08:05:35;;;;;;;6.20;3.97;;;2.70;81.70;;;;;;5052096;28;20031;-75
2023/12/04 08:08:01;;;;;;;5.80;3.97;;;2.80;81.10;;;;;;5051615;28;20068;-75
2023/12/04 08:10:27;;;;;;;6.47;3.60;;;2.90;80.70;;;;;;5051871;28;20154;-75
2023/12/04 08:12:53;;;;;;;7.77;4.07;;;2.90;80.10;;;;;;5052228;28;20033;-73
2023/12/04 08:15:18;;;;;;;5.87;3.77;;;2.90;79.90;;;;;;5055797;28;20056;-72
2023/12/04 08:17:44;;;;;;;7.00;3.60;;;3.00;79.80;;;;;;5055928;28;20551;-73
2023/12/04 08:20:13;;;;;;;5.70;3.67;;;3.10;79.40;;;;;;5055924;28;20075;-82
2023/12/04 08:22:41;;;;;;;5.40;2.80;;;3.10;78.90;;;;;;5053321;28;20045;-72
2023/12/04 08:25:07;;;;;;;5.97;2.97;;;3.10;78.40;;;;;;5055611;28;20025;-73
2023/12/04 08:27:33;;;;;;;4.97;3.30;;;3.20;77.60;;;;;;5055710;28;20037;-72
2023/12/04 08:29:59;;;;;;;4.30;2.87;;;3.20;77.30;;;;;;5055612;28;20527;-75
2023/12/04 08:32:26;;;;;;;5.27;3.03;;;3.30;77.40;;;;;;5055651;28;20029;-73
2023/12/04 08:34:52;;;;;;;5.00;3.20;;;3.40;77.40;;;;;;5055229;28;20021;-73
2023/12/04 08:37:19;;;;;;;4.47;3.10;;;3.40;77.40;;;;;;5055421;28;20037;-73
2023/12/04 08:39:44;;;;;;;5.17;3.00;;;3.40;77.30;;;;;;5055501;28;20056;-72
2023/12/04 08:42:11;;;;;;;9.90;3.60;;;3.50;76.40;;;;;;5055322;28;20033;-73
2023/12/04 08:44:37;;;;;;;5.40;3.23;;;3.50;76.00;;;;;;5055553;28;20040;-75
2023/12/04 08:47:03;;;;;;;7.17;4.00;;;3.60;76.10;;;;;;5055666;28;20033;-73
2023/12/04 08:49:28;;;;;;;5.77;4.03;;;3.60;76.40;;;;;;5055543;28;20045;-72
2023/12/04 08:51:54;;;;;;;7.50;4.30;;;3.60;76.40;;;;;;5055034;28;20408;-73
2023/12/04 08:54:20;;;;;;;7.67;4.50;;;3.70;77.20;;;;;;5055316;28;20040;-73
2023/12/04 08:56:46;;;;;;;8.67;4.77;;;3.70;76.20;;;;;;5055240;28;20033;-73
2023/12/04 08:59:12;;;;;;;12.10;5.73;;;3.70;76.70;;;;;;5055296;28;20068;-73
2023/12/04 09:01:39;;;;;;;10.40;6.83;;;3.70;77.30;;;;;;5055145;28;20029;-73
2023/12/04 09:04:05;;;;;;;13.57;6.30;;;3.70;78.40;;;;;;5055288;28;20104;-72
2023/12/04 09:06:30;;;;;;;10.67;5.60;;;3.70;79.00;;;;;;5054971;28;20224;-73
2023/12/04 09:08:56;;;;;;;17.50;6.57;;;3.70;79.50;;;;;;5054765;28;20041;-73
2023/12/04 09:11:22;;;;;;;10.70;5.80;;;3.80;79.80;;;;;;5054890;28;20067;-73
2023/12/04 09:13:48;;;;;;;10.00;6.23;;;3.70;80.00;;;;;;5043780;28;20033;-74
2023/12/04 09:16:13;;;;;;;10.40;5.73;;;3.80;80.00;;;;;;5022835;28;20505;-74
2023/12/04 09:18:39;;;;;;;9.43;5.80;;;3.80;79.90;;;;;;5023545;28;20033;-74
2023/12/04 09:21:05;;;;;;;9.60;5.57;;;3.80;80.00;;;;;;5027908;28;20034;-73
2023/12/04 09:23:31;;;;;;;13.40;5.30;;;3.80;79.90;;;;;;5032716;28;20037;-74
2023/12/04 09:25:57;;;;;;;10.77;5.77;;;3.90;80.00;;;;;;5033041;28;20490;-73
2023/12/04 09:28:23;;;;;;;8.03;5.40;;;3.90;80.30;;;;;;5034017;28;20048;-73
2023/12/04 09:30:48;;;;;;;14.67;5.67;;;3.90;80.30;;;;;;5034110;28;20155;-73
2023/12/04 09:33:14;;;;;;;11.37;5.40;;;3.90;80.30;;;;;;5033203;28;20037;-73
2023/12/04 09:35:40;;;;;;;13.53;5.23;;;3.90;80.30;;;;;;5032699;28;20112;-73
2023/12/04 09:38:06;;;;;;;10.40;5.23;;;4.00;80.40;;;;;;5032707;28;20025;-73
2023/12/04 09:40:32;;;;;;;15.87;6.43;;;4.00;80.50;;;;;;5032714;28;20035;-73
2023/12/04 09:42:58;;;;;;;13.20;6.00;;;4.00;80.70;;;;;;5032466;28;20096;-73
2023/12/04 09:45:25;;;;;;;16.63;5.77;;;4.10;80.50;;;;;;5032642;28;20037;-74
2023/12/04 09:47:51;;;;;;;21.33;7.17;;;4.10;80.40;;;;;;5033606;28;20030;-73
2023/12/04 09:50:20;;;;;;;15.30;6.53;;;4.10;81.50;;;;;;5034410;28;20502;-74
2023/12/04 09:52:49;;;;;;;16.87;6.57;;;4.10;82.10;;;;;;5026995;28;20470;-73
2023/12/04 09:55:16;;;;;;;18.77;6.63;;;4.10;82.80;;;;;;5014499;28;20041;-73
2023/12/04 09:57:46;;;;;;;13.57;6.50;;;4.10;83.10;;;;;;5014456;28;20026;-73
2023/12/04 10:00:14;;;;;;;13.87;6.67;;;4.10;83.30;;;;;;5006263;28;20033;-73
2023/12/04 10:02:40;;;;;;;15.63;7.07;;;4.10;83.40;;;;;;5014435;28;20033;-73
2023/12/04 10:05:10;;;;;;;13.73;6.50;;;4.10;84.00;;;;;;5014534;28;20045;-73
2023/12/04 10:07:38;;;;;;;14.10;6.30;;;4.10;84.30;;;;;;5014392;28;20045;-73
2023/12/04 10:10:05;;;;;;;12.47;6.63;;;4.10;84.70;;;;;;4996806;28;20050;-73
2023/12/04 10:12:33;;;;;;;12.87;6.30;;;4.20;84.90;;;;;;5014189;28;20034;-73
2023/12/04 10:15:06;;;;;;;10.83;6.77;;;4.20;84.90;;;;;;5019431;28;20053;-73
2023/12/04 10:17:40;;;;;;;12.33;7.40;;;4.20;85.00;;;;;;5033866;28;20026;-73
2023/12/04 10:20:11;;;;;;;12.73;7.20;;;4.20;85.00;;;;;;5033690;28;20033;-73
2023/12/04 10:22:51;;;;;;;12.37;7.00;;;4.20;84.80;;;;;;5034000;28;20036;-73
2023/12/04 10:25:20;;;;;;;12.40;6.87;;;4.20;85.00;;;;;;5033836;28;20039;-73
2023/12/04 10:27:46;;;;;;;12.93;7.00;;;4.30;84.50;;;;;;5033351;28;20552;-73
2023/12/04 10:30:31;;;;;;;10.23;5.87;;;4.30;84.50;;;;;;5025574;28;20076;-73
2023/12/04 10:33:00;;;;;;;15.77;6.17;;;4.30;84.50;;;;;;5033998;28;20033;-75
2023/12/04 10:35:32;;;;;;;11.33;6.13;;;4.30;84.60;;;;;;5033193;28;20485;-73
2023/12/04 10:38:02;;;;;;;10.57;6.18;;;4.30;84.70;;;;;;5033182;28;20079;-74
2023/12/04 10:40:32;;;;;;;10.80;6.13;;;4.40;84.70;;;;;;5033498;28;20120;-73
2023/12/04 10:43:15;;;;;;;10.87;5.73;;;4.40;84.70;;;;;;5033614;28;20107;-73
2023/12/04 10:45:42;;;;;;;12.48;6.45;;;4.40;84.50;;;;;;5033425;28;20045;-73
2023/12/04 10:48:08;;;;;;;12.30;6.13;;;4.40;84.60;;;;;;5033419;28;20033;-73
2023/12/04 10:50:39;;;;;;;10.53;5.83;;;4.40;84.30;;;;;;5033281;28;20048;-73
2023/12/04 10:53:07;;;;;;;10.67;5.43;;;4.50;84.70;;;;;;5033391;28;20059;-73
2023/12/04 10:55:33;;;;;;;9.40;5.57;;;4.50;84.50;;;;;;5033469;28;20036;-73
2023/12/04 10:58:05;;;;;;;10.17;5.03;;;4.50;84.20;;;;;;5033326;28;20041;-73
2023/12/04 11:00:36;;;;;;;10.45;4.57;;;4.60;84.30;;;;;;5033152;28;20548;-73
2023/12/04 11:03:09;;;;;;;7.27;4.57;;;4.60;83.60;;;;;;5032330;28;20060;-73
2023/12/04 11:05:39;;;;;;;6.93;3.40;;;4.60;81.60;;;;;;5032389;28;20037;-73
2023/12/04 11:08:08;;;;;;;5.37;2.97;;;4.70;80.90;;;;;;5032694;28;20398;-73
2023/12/04 11:10:42;;;;;;;6.57;3.03;;;4.80;80.00;;;;;;5032821;28;20041;-73
2023/12/04 11:13:21;;;;;;;5.00;2.27;;;4.80;79.20;;;;;;5032872;28;20064;-73
2023/12/04 11:15:50;;;;;;;4.70;3.03;;;4.80;78.90;;;;;;5032400;28;20056;-73
2023/12/04 11:18:20;;;;;;;3.93;2.27;;;4.80;78.10;;;;;;5049635;28;20041;-73
2023/12/04 11:20:58;;;;;;;5.77;3.37;;;4.90;77.00;;;;;;5051055;28;20035;-74
2023/12/04 11:23:25;;;;;;;7.10;3.73;;;5.00;76.00;;;;;;5050618;28;20542;-74
2023/12/04 11:25:54;;;;;;;9.63;3.97;;;5.00;74.80;;;;;;5051388;28;20037;-74
2023/12/04 11:28:20;;;;;;;7.90;4.10;;;5.10;74.60;;;;;;5051312;28;20044;-74
2023/12/04 11:30:47;;;;;;;6.07;3.90;;;5.20;74.50;;;;;;5051165;28;20135;-73
2023/12/04 11:33:13;;;;;;;9.10;4.00;;;5.30;74.70;;;;;;5051700;28;20083;-73
2023/12/04 11:35:39;;;;;;;6.37;3.80;;;5.30;74.80;;;;;;5051889;28;20037;-74
2023/12/04 11:38:09;;;;;;;7.07;3.70;;;5.40;74.70;;;;;;5051322;28;20032;-74
2023/12/04 11:40:36;;;;;;;6.07;3.17;;;5.40;75.40;;;;;;5048840;28;20025;-73
2023/12/04 11:43:22;;;;;;;5.20;2.70;;;5.60;74.80;;;;;;5048483;28;20033;-74
2023/12/04 11:45:49;;;;;;;4.60;2.73;;;5.60;75.10;;;;;;5050794;28;20037;-72
2023/12/04 11:48:15;;;;;;;5.00;3.00;;;5.70;74.10;;;;;;5053772;28;20044;-73
2023/12/04 11:50:43;;;;;;;6.03;2.97;;;5.80;74.10;;;;;;5055616;28;20547;-73
2023/12/04 11:53:13;;;;;;;4.60;2.60;;;5.80;73.50;;;;;;5054862;28;20128;-74
2023/12/04 11:55:41;;;;;;;4.97;3.13;;;5.80;73.40;;;;;;5054347;28;20033;-73
2023/12/04 11:58:11;;;;;;;4.00;2.63;;;5.80;73.60;;;;;;5055353;28;20044;-73
2023/12/04 12:00:37;;;;;;;4.00;2.87;;;5.70;74.20;;;;;;5056263;28;20362;-73
2023/12/04 12:03:09;;;;;;;5.83;2.90;;;5.80;74.20;;;;;;5056435;28;20054;-72
2023/12/04 12:05:38;;;;;;;6.13;3.43;;;5.70;73.70;;;;;;5056092;28;20082;-72
2023/12/04 12:08:05;;;;;;;3.97;2.93;;;5.70;73.00;;;;;;5055919;28;20041;-73
2023/12/04 12:10:32;;;;;;;5.23;3.23;;;5.60;72.90;;;;;;5056250;28;20039;-73
2023/12/04 12:12:59;;;;;;;5.60;3.03;;;5.60;73.50;;;;;;5056177;28;20393;-74
2023/12/04 12:15:25;;;;;;;4.40;2.83;;;5.60;73.50;;;;;;5055930;28;20497;-74
2023/12/04 12:17:51;;;;;;;7.27;3.30;;;5.60;73.70;;;;;;5055491;28;20028;-74
2023/12/04 12:20:17;;;;;;;5.07;3.23;;;5.60;74.10;;;;;;5055516;28;20037;-74
2023/12/04 12:22:43;;;;;;;5.17;3.50;;;5.50;74.00;;;;;;5055934;28;20101;-74
2023/12/04 12:25:10;;;;;;;6.23;3.30;;;5.50;74.10;;;;;;5055838;28;20051;-74
2023/12/04 12:27:37;;;;;;;6.67;3.73;;;5.50;74.60;;;;;;5054361;28;20045;-74
2023/12/04 12:30:04;;;;;;;7.07;3.87;;;5.50;74.80;;;;;;5055611;28;20507;-74
2023/12/04 12:32:34;;;;;;;6.10;3.37;;;5.50;74.60;;;;;;5055296;28;20033;-75
2023/12/04 12:35:00;;;;;;;5.47;3.60;;;5.50;74.50;;;;;;5055142;28;20126;-74
2023/12/04 12:37:25;;;;;;;5.37;3.40;;;5.50;74.80;;;;;;5054861;28;20095;-74
2023/12/04 12:39:52;;;;;;;5.47;3.50;;;5.40;74.90;;;;;;5054776;28;20037;-74
2023/12/04 12:42:25;;;;;;;5.77;4.03;;;5.40;75.30;;;;;;5055000;28;20082;-74
2023/12/04 12:44:52;;;;;;;6.90;3.80;;;5.40;75.40;;;;;;5054066;28;20040;-74
2023/12/04 12:47:18;;;;;;;6.77;4.00;;;5.40;75.50;;;;;;5055354;28;20033;-74
2023/12/04 12:49:44;;;;;;;5.87;3.60;;;5.40;75.60;;;;;;5055094;28;20041;-74
2023/12/04 12:52:11;;;;;;;5.83;3.93;;;5.40;76.00;;;;;;5054954;28;20029;-75